Time;durP1;ratioP1;P1;durP2;ratioP2;P2;SDS_P1;SDS_P2;PMS_P1;PMS_P2;Temp;Humidity;BMP_temperature;BMP_pressure;BME280_temperature;BME280_humidity;BME280_pressure;Samples;Min_cycle;Max_cycle;Signal;HPM_P1;HPM_P2
2021/12/02 00:02:07;;;;;;;;;;;;;;;;;;5053221;28;20004;-85
2021/12/02 00:04:36;;;;;;;;;;;;;;;;;;5053150;28;19956;-85
2021/12/02 00:07:04;;;;;;;;;;;;;;;;;;5053158;28;19973;-86
2021/12/02 00:09:31;;;;;;;;;;;;;;;;;;5053467;28;19990;-86
2021/12/02 00:11:58;;;;;;;;;;;;;;;;;;5053251;28;20334;-87
2021/12/02 00:14:26;;;;;;;;;;;;;;;;;;5053189;28;20031;-85
2021/12/02 00:17:04;;;;;;;;;;;;;;;;;;5053197;28;19954;-85
2021/12/02 00:22:15;;;;;;;;;;;;;;;;;;5053201;28;19942;-86
2021/12/02 00:24:42;;;;;;;;;;;;;;;;;;5053025;28;20436;-85
2021/12/02 00:27:09;;;;;;;;;;;;;;;;;;5052957;28;20059;-86
2021/12/02 00:29:36;;;;;;;;;;;;;;;;;;5053164;28;20064;-85
2021/12/02 00:32:03;;;;;;;;;;;;;;;;;;5053149;28;19952;-84
2021/12/02 00:34:30;;;;;;;;;;;;;;;;;;5053040;28;20051;-85
2021/12/02 00:36:57;;;;;;;;;;;;;;;;;;5052889;28;20608;-85
2021/12/02 00:39:24;;;;;;;;;;;;;;;;;;5053017;28;20020;-86
2021/12/02 00:41:51;;;;;;;;;;;;;;;;;;5052690;28;20053;-88
2021/12/02 00:44:19;;;;;;;;;;;;;;;;;;5052934;28;20001;-85
2021/12/02 00:46:46;;;;;;;;;;;;;;;;;;5052940;28;19982;-85
2021/12/02 00:49:14;;;;;;;;;;;;;;;;;;5052871;28;19996;-86
2021/12/02 00:51:40;;;;;;;;;;;;;;;;;;5052754;28;20006;-86
2021/12/02 00:54:07;;;;;;;;;;;;;;;;;;5053335;28;20038;-85
2021/12/02 00:56:34;;;;;;;;;;;;;;;;;;5056590;28;19960;-86
2021/12/02 00:59:01;;;;;;;;;;;;;;;;;;5056405;28;20475;-86
2021/12/02 01:01:33;;;;;;;;;;;;;;;;;;5056536;28;20042;-85
2021/12/02 01:04:00;;;;;;;;;;;;;;;;;;5056411;28;19962;-86
2021/12/02 01:06:27;;;;;;;;;;;;;;;;;;5056004;28;20066;-85
2021/12/02 01:08:54;;;;;;;;;;;;;;;;;;5056111;28;20054;-86
2021/12/02 01:11:23;;;;;;;;;;;;;;;;;;5056142;28;19964;-86
2021/12/02 01:13:52;;;;;;;;;;;;;;;;;;5056413;28;19961;-86
2021/12/02 01:16:22;;;;;;;;;;;;;;;;;;5056030;28;20432;-85
2021/12/02 01:18:49;;;;;;;;;;;;;;;;;;5056102;28;20056;-86
2021/12/02 01:21:16;;;;;;;;;;;;;;;;;;5055991;28;20395;-86
2021/12/02 01:23:43;;;;;;;;;;;;;;;;;;5056520;28;20048;-87
2021/12/02 01:26:10;;;;;;;;;;;;;;;;;;5057353;28;20087;-87
2021/12/02 01:28:37;;;;;;;;;;;;;;;;;;5057283;28;20064;-84
2021/12/02 01:31:04;;;;;;;;;;;;;;;;;;5056742;28;20034;-86
2021/12/02 01:33:31;;;;;;;;;;;;;;;;;;5055974;28;20000;-86
2021/12/02 01:35:58;;;;;;;;;;;;;;;;;;5056214;28;20374;-86
2021/12/02 01:38:25;;;;;;;;;;;;;;;;;;5055796;28;20328;-86
2021/12/02 01:40:52;;;;;;;;;;;;;;;;;;5055682;28;20034;-86
2021/12/02 01:43:19;;;;;;;;;;;;;;;;;;5055698;28;19953;-87
2021/12/02 01:45:46;;;;;;;;;;;;;;;;;;5055555;28;20416;-86
2021/12/02 01:48:15;;;;;;;;;;;;;;;;;;5055541;28;20018;-86
2021/12/02 01:50:41;;;;;;;;;;;;;;;;;;5055563;28;19962;-86
2021/12/02 01:53:08;;;;;;;;;;;;;;;;;;5055708;28;20053;-86
2021/12/02 01:55:35;;;;;;;;;;;;;;;;;;5055382;28;20051;-86
2021/12/02 01:58:02;;;;;;;;;;;;;;;;;;5055478;28;20458;-86
2021/12/02 02:00:32;;;;;;;;;;;;;;;;;;5055543;28;20037;-86
2021/12/02 02:02:59;;;;;;;;;;;;;;;;;;5055488;28;20339;-86
2021/12/02 02:05:27;;;;;;;;;;;;;;;;;;5055426;28;20038;-86
2021/12/02 02:07:55;;;;;;;;;;;;;;;;;;5054791;28;19984;-87
2021/12/02 02:10:22;;;;;;;;;;;;;;;;;;5055533;28;19953;-86
2021/12/02 02:12:49;;;;;;;;;;;;;;;;;;5054958;28;20039;-86
2021/12/02 02:15:16;;;;;;;;;;;;;;;;;;5055180;28;20005;-86
2021/12/02 02:17:49;;;;;;;;;;;;;;;;;;5054922;28;20422;-84
2021/12/02 02:20:16;;;;;;;;;;;;;;;;;;5055245;28;19962;-86
2021/12/02 02:22:43;;;;;;;;;;;;;;;;;;5055027;28;19962;-86
2021/12/02 02:25:13;;;;;;;;;;;;;;;;;;5054852;28;19997;-87
2021/12/02 02:27:40;;;;;;;;;;;;;;;;;;5054695;28;20453;-86
2021/12/02 02:30:09;;;;;;;;;;;;;;;;;;5054840;28;20376;-86
2021/12/02 02:32:37;;;;;;;;;;;;;;;;;;5054715;28;20406;-87
2021/12/02 02:35:04;;;;;;;;;;;;;;;;;;5054730;28;20483;-86
2021/12/02 02:37:33;;;;;;;;;;;;;;;;;;5054582;28;20438;-86
2021/12/02 02:40:00;;;;;;;;;;;;;;;;;;5054619;28;19958;-86
2021/12/02 02:42:27;;;;;;;;;;;;;;;;;;5054464;28;19952;-87
2021/12/02 02:44:54;;;;;;;;;;;;;;;;;;5054433;28;20062;-86
2021/12/02 02:47:25;;;;;;;;;;;;;;;;;;5054311;28;20505;-86
2021/12/02 02:49:52;;;;;;;;;;;;;;;;;;5054547;28;19959;-86
2021/12/02 02:52:19;;;;;;;;;;;;;;;;;;5054563;28;20156;-87
2021/12/02 02:54:46;;;;;;;;;;;;;;;;;;5053783;28;20044;-86
2021/12/02 02:57:15;;;;;;;;;;;;;;;;;;5054371;28;19954;-87
2021/12/02 02:59:54;;;;;;;;;;;;;;;;;;5054465;28;20033;-85
2021/12/02 03:02:26;;;;;;;;;;;;;;;;;;5054757;28;19963;-87
2021/12/02 03:04:56;;;;;;;;;;;;;;;;;;5054198;28;20043;-86
2021/12/02 03:07:28;;;;;;;;;;;;;;;;;;5054007;28;20014;-87
2021/12/02 03:10:06;;;;;;;;;;;;;;;;;;5057471;28;19957;-87
2021/12/02 03:12:37;;;;;;;;;;;;;;;;;;5056474;28;19951;-86
2021/12/02 03:17:48;;;;;;;;;;;;;;;;;;5053187;28;20027;-86
2021/12/02 03:20:15;;;;;;;;;;;;;;;;;;5054066;28;20343;-84
2021/12/02 03:22:43;;;;;;;;;;;;;;;;;;5054142;28;20075;-86
2021/12/02 03:25:10;;;;;;;;;;;;;;;;;;5054329;28;19958;-87
2021/12/02 03:27:37;;;;;;;;;;;;;;;;;;5053869;28;20028;-85
2021/12/02 03:30:06;;;;;;;;;;;;;;;;;;5053697;28;20045;-88
2021/12/02 03:32:33;;;;;;;;;;;;;;;;;;5053782;28;20365;-87
2021/12/02 03:35:00;;;;;;;;;;;;;;;;;;5053759;28;19954;-87
2021/12/02 03:37:27;;;;;;;;;;;;;;;;;;5053781;28;20061;-86
2021/12/02 03:39:54;;;;;;;;;;;;;;;;;;5053594;28;20043;-85
2021/12/02 03:42:21;;;;;;;;;;;;;;;;;;5053454;28;20043;-87
2021/12/02 03:44:48;;;;;;;;;;;;;;;;;;5053489;28;20383;-86
2021/12/02 03:47:15;;;;;;;;;;;;;;;;;;5053343;28;20009;-87
2021/12/02 03:49:42;;;;;;;;;;;;;;;;;;5053689;28;20036;-87
2021/12/02 03:52:09;;;;;;;;;;;;;;;;;;5053606;28;20042;-87
2021/12/02 03:54:36;;;;;;;;;;;;;;;;;;5053425;28;19960;-87
2021/12/02 03:57:03;;;;;;;;;;;;;;;;;;5053718;28;20065;-88
2021/12/02 03:59:31;;;;;;;;;;;;;;;;;;5053564;28;20057;-87
2021/12/02 04:01:58;;;;;;;;;;;;;;;;;;5053364;28;20047;-87
2021/12/02 04:04:25;;;;;;;;;;;;;;;;;;5053563;28;20048;-89
2021/12/02 04:06:52;;;;;;;;;;;;;;;;;;5053535;28;20066;-88
2021/12/02 04:09:21;;;;;;;;;;;;;;;;;;5053144;28;20062;-87
2021/12/02 04:11:54;;;;;;;;;;;;;;;;;;5053491;28;19961;-86
2021/12/02 04:14:25;;;;;;;;;;;;;;;;;;5053258;28;20044;-87
2021/12/02 04:16:53;;;;;;;;;;;;;;;;;;5053427;28;20036;-87
2021/12/02 04:19:20;;;;;;;;;;;;;;;;;;5053534;28;19960;-87
2021/12/02 04:21:47;;;;;;;;;;;;;;;;;;5053108;28;20428;-87
2021/12/02 04:24:14;;;;;;;;;;;;;;;;;;5053363;28;19990;-87
2021/12/02 04:26:43;;;;;;;;;;;;;;;;;;5053573;28;19994;-86
2021/12/02 04:29:10;;;;;;;;;;;;;;;;;;5053853;28;20420;-86
2021/12/02 04:31:37;;;;;;;;;;;;;;;;;;5057169;28;20017;-92
2021/12/02 04:34:05;;;;;;;;;;;;;;;;;;5057196;28;20050;-88
2021/12/02 04:36:31;;;;;;;;;;;;;;;;;;5057241;28;20391;-88
2021/12/02 04:38:58;;;;;;;;;;;;;;;;;;5056888;28;20034;-85
2021/12/02 04:41:25;;;;;;;;;;;;;;;;;;5056932;28;20010;-88
2021/12/02 04:43:52;;;;;;;;;;;;;;;;;;5056931;28;20045;-87
2021/12/02 04:46:19;;;;;;;;;;;;;;;;;;5056484;28;20040;-87
2021/12/02 04:48:46;;;;;;;;;;;;;;;;;;5056528;28;20505;-87
2021/12/02 04:51:13;;;;;;;;;;;;;;;;;;5056718;28;20395;-87
2021/12/02 04:53:46;;;;;;;;;;;;;;;;;;5059486;28;19991;-87
2021/12/02 04:56:13;;;;;;;;;;;;;;;;;;5060135;28;20357;-86
2021/12/02 04:58:40;;;;;;;;;;;;;;;;;;5059505;28;20002;-86
2021/12/02 05:01:07;;;;;;;;;;;;;;;;;;5056787;28;20052;-87
2021/12/02 05:03:34;;;;;;;;;;;;;;;;;;5056512;28;20050;-88
2021/12/02 05:06:01;;;;;;;;;;;;;;;;;;5056361;28;20401;-86
2021/12/02 05:08:28;;;;;;;;;;;;;;;;;;5056290;28;20115;-88
2021/12/02 05:10:55;;;;;;;;;;;;;;;;;;5056377;28;20000;-87
2021/12/02 05:13:22;;;;;;;;;;;;;;;;;;5056057;28;20045;-86
2021/12/02 05:15:49;;;;;;;;;;;;;;;;;;5055792;28;20042;-87
2021/12/02 05:18:16;;;;;;;;;;;;;;;;;;5055614;28;20402;-86
2021/12/02 05:20:43;;;;;;;;;;;;;;;;;;5056391;28;20040;-86
2021/12/02 05:23:10;;;;;;;;;;;;;;;;;;5056422;28;20038;-88
2021/12/02 05:25:37;;;;;;;;;;;;;;;;;;5055880;28;20058;-88
2021/12/02 05:28:04;;;;;;;;;;;;;;;;;;5056221;28;20061;-87
2021/12/02 05:30:31;;;;;;;;;;;;;;;;;;5055894;28;20009;-88
2021/12/02 05:32:58;;;;;;;;;;;;;;;;;;5056158;28;20368;-87
2021/12/02 05:35:25;;;;;;;;;;;;;;;;;;5056345;28;20073;-88
2021/12/02 05:37:51;;;;;;;;;;;;;;;;;;5056203;28;20045;-87
2021/12/02 05:40:18;;;;;;;;;;;;;;;;;;5055416;28;20006;-87
2021/12/02 05:42:45;;;;;;;;;;;;;;;;;;5054971;28;20053;-87
2021/12/02 05:45:12;;;;;;;;;;;;;;;;;;5055855;28;20480;-86
2021/12/02 05:47:39;;;;;;;;;;;;;;;;;;5055662;28;20366;-89
2021/12/02 05:50:06;;;;;;;;;;;;;;;;;;5055897;28;20061;-88
2021/12/02 05:52:33;;;;;;;;;;;;;;;;;;5055801;28;19988;-87
2021/12/02 05:55:00;;;;;;;;;;;;;;;;;;5055613;28;20035;-87
2021/12/02 05:57:27;;;;;;;;;;;;;;;;;;5055284;28;20000;-88
2021/12/02 05:59:54;;;;;;;;;;;;;;;;;;5055262;28;20355;-87
2021/12/02 06:02:21;;;;;;;;;;;;;;;;;;5055505;28;20377;-88
2021/12/02 06:04:52;;;;;;;;;;;;;;;;;;5056287;28;20009;-88
2021/12/02 06:07:19;;;;;;;;;;;;;;;;;;5055138;28;19983;-87
2021/12/02 06:09:46;;;;;;;;;;;;;;;;;;5055093;28;20478;-87
2021/12/02 06:12:13;;;;;;;;;;;;;;;;;;5055182;28;20053;-88
2021/12/02 06:14:40;;;;;;;;;;;;;;;;;;5055000;28;20048;-87
2021/12/02 06:17:07;;;;;;;;;;;;;;;;;;5055115;28;20006;-87
2021/12/02 06:19:34;;;;;;;;;;;;;;;;;;5054417;28;20450;-87
2021/12/02 06:22:01;;;;;;;;;;;;;;;;;;5054864;28;20062;-88
2021/12/02 06:24:31;;;;;;;;;;;;;;;;;;5055164;28;20004;-88
2021/12/02 06:26:58;;;;;;;;;;;;;;;;;;5055011;28;19962;-87
2021/12/02 06:29:25;;;;;;;;;;;;;;;;;;5054953;28;20021;-88
2021/12/02 06:31:52;;;;;;;;;;;;;;;;;;5055285;28;19954;-87
2021/12/02 06:34:19;;;;;;;;;;;;;;;;;;5055133;28;19957;-88
2021/12/02 06:36:46;;;;;;;;;;;;;;;;;;5061609;28;20000;-88
2021/12/02 06:39:13;;;;;;;;;;;;;;;;;;5059764;28;20022;-89
2021/12/02 06:41:40;;;;;;;;;;;;;;;;;;5061443;28;19995;-87
2021/12/02 06:44:07;;;;;;;;;;;;;;;;;;5054511;28;20476;-87
2021/12/02 06:46:34;;;;;;;;;;;;;;;;;;5054825;28;19980;-88
2021/12/02 06:49:01;;;;;;;;;;;;;;;;;;5054069;28;20019;-88
2021/12/02 06:51:28;;;;;;;;;;;;;;;;;;5054631;28;20000;-88
2021/12/02 06:53:56;;;;;;;;;;;;;;;;;;5053530;28;20045;-87
2021/12/02 06:56:23;;;;;;;;;;;;;;;;;;5054221;28;20385;-88
2021/12/02 06:58:50;;;;;;;;;;;;;;;;;;5054181;28;20052;-87
2021/12/02 07:01:17;;;;;;;;;;;;;;;;;;5054667;28;20357;-88
2021/12/02 07:03:44;;;;;;;;;;;;;;;;;;5054282;28;19995;-89
2021/12/02 07:06:11;;;;;;;;;;;;;;;;;;5054112;28;19992;-87
2021/12/02 07:08:38;;;;;;;;;;;;;;;;;;5054372;28;20032;-88
2021/12/02 07:11:07;;;;;;;;;;;;;;;;;;5054065;28;20414;-88
2021/12/02 07:13:36;;;;;;;;;;;;;;;;;;5054145;28;20008;-88
2021/12/02 07:16:03;;;;;;;;;;;;;;;;;;5054120;28;19964;-88
2021/12/02 07:18:35;;;;;;;;;;;;;;;;;;5054111;28;19994;-86
2021/12/02 07:21:02;;;;;;;;;;;;;;;;;;5053997;28;19997;-86
2021/12/02 07:23:29;;;;;;;;;;;;;;;;;;5054093;28;20039;-88
2021/12/02 07:25:56;;;;;;;;;;;;;;;;;;5053808;28;20045;-87
2021/12/02 07:28:23;;;;;;;;;;;;;;;;;;5053978;28;20443;-87
2021/12/02 07:30:50;;;;;;;;;;;;;;;;;;5054016;28;20032;-87
2021/12/02 07:33:17;;;;;;;;;;;;;;;;;;5054040;28;20038;-87
2021/12/02 07:35:44;;;;;;;;;;;;;;;;;;5054069;28;20050;-88
2021/12/02 07:38:10;;;;;;;;;;;;;;;;;;5053800;28;20007;-88
2021/12/02 07:40:40;;;;;;;;;;;;;;;;;;5053693;28;20043;-88
2021/12/02 07:43:07;;;;;;;;;;;;;;;;;;5053790;28;20440;-89
2021/12/02 07:45:35;;;;;;;;;;;;;;;;;;5053655;28;20115;-87
2021/12/02 07:48:03;;;;;;;;;;;;;;;;;;5053677;28;20114;-87
2021/12/02 07:50:30;;;;;;;;;;;;;;;;;;5053501;28;19972;-88
2021/12/02 07:52:57;;;;;;;;;;;;;;;;;;5053305;28;20398;-88
2021/12/02 07:55:24;;;;;;;;;;;;;;;;;;5053610;28;20039;-88
2021/12/02 07:57:51;;;;;;;;;;;;;;;;;;5053623;28;20046;-87
2021/12/02 08:00:18;;;;;;;;;;;;;;;;;;5053112;28;20044;-87
2021/12/02 08:02:45;;;;;;;;;;;;;;;;;;5053153;28;19991;-88
2021/12/02 08:05:12;;;;;;;;;;;;;;;;;;5058614;28;20382;-87
2021/12/02 08:07:39;;;;;;;;;;;;;;;;;;5059246;28;20020;-87
2021/12/02 08:10:06;;;;;;;;;;;;;;;;;;5059524;28;19981;-87
2021/12/02 08:12:33;;;;;;;;;;;;;;;;;;5060952;28;20433;-88
2021/12/02 08:15:00;;;;;;;;;;;;;;;;;;5065958;28;20021;-88
2021/12/02 08:17:27;;;;;;;;;;;;;;;;;;5066377;28;20004;-87
2021/12/02 08:19:54;;;;;;;;;;;;;;;;;;5066286;28;20019;-87
2021/12/02 08:22:21;;;;;;;;;;;;;;;;;;5063330;28;20372;-87
2021/12/02 08:24:48;;;;;;;;;;;;;;;;;;5067069;28;20013;-86
2021/12/02 08:27:15;;;;;;;;;;;;;;;;;;5059920;28;20038;-84
2021/12/02 08:29:42;;;;;;;;;;;;;;;;;;5057778;28;20016;-86
2021/12/02 08:32:09;;;;;;;;;;;;;;;;;;5057836;28;20315;-86
2021/12/02 08:34:37;;;;;;;;;;;;;;;;;;5057760;28;19957;-86
2021/12/02 08:37:04;;;;;;;;;;;;;;;;;;5059073;28;20003;-85
2021/12/02 08:39:32;;;;;;;;;;;;;;;;;;5059797;28;20362;-85
2021/12/02 08:41:59;;;;;;;;;;;;;;;;;;5059660;28;19962;-86
2021/12/02 08:44:26;;;;;;;;;;;;;;;;;;5059698;28;20279;-85
2021/12/02 08:46:53;;;;;;;;;;;;;;;;;;5059564;28;20049;-85
2021/12/02 08:49:20;;;;;;;;;;;;;;;;;;5059277;28;19969;-86
2021/12/02 08:51:47;;;;;;;;;;;;;;;;;;5059707;28;20009;-85
2021/12/02 08:54:15;;;;;;;;;;;;;;;;;;5059605;28;20051;-87
2021/12/02 08:56:42;;;;;;;;;;;;;;;;;;5059718;28;20004;-86
2021/12/02 08:59:09;;;;;;;;;;;;;;;;;;5059731;28;20590;-86
2021/12/02 09:01:37;;;;;;;;;;;;;;;;;;5059398;28;19958;-86
2021/12/02 09:04:04;;;;;;;;;;;;;;;;;;5059532;28;20051;-86
2021/12/02 09:06:31;;;;;;;;;;;;;;;;;;5059359;28;20019;-86
2021/12/02 09:08:58;;;;;;;;;;;;;;;;;;5058127;28;20647;-86
2021/12/02 09:11:25;;;;;;;;;;;;;;;;;;5059638;28;19960;-86
2021/12/02 09:13:56;;;;;;;;;;;;;;;;;;5059325;28;20004;-85
2021/12/02 09:16:23;;;;;;;;;;;;;;;;;;5057108;28;20071;-85
2021/12/02 09:18:50;;;;;;;;;;;;;;;;;;5056261;28;20005;-86
2021/12/02 09:21:17;;;;;;;;;;;;;;;;;;5056159;28;20403;-86
2021/12/02 09:23:44;;;;;;;;;;;;;;;;;;5056071;28;20008;-86
2021/12/02 09:26:11;;;;;;;;;;;;;;;;;;5056226;28;19994;-87
2021/12/02 09:28:38;;;;;;;;;;;;;;;;;;5056038;28;20005;-87
2021/12/02 09:31:06;;;;;;;;;;;;;;;;;;5055095;28;19959;-87
2021/12/02 09:33:33;;;;;;;;;;;;;;;;;;5056083;28;20400;-87
2021/12/02 09:36:00;;;;;;;;;;;;;;;;;;5056045;28;20002;-87
2021/12/02 09:38:27;;;;;;;;;;;;;;;;;;5056211;28;19961;-87
2021/12/02 09:40:54;;;;;;;;;;;;;;;;;;5056301;28;20008;-88
2021/12/02 09:43:21;;;;;;;;;;;;;;;;;;5056490;28;20050;-89
2021/12/02 09:45:48;;;;;;;;;;;;;;;;;;5056404;28;19995;-88
2021/12/02 09:48:15;;;;;;;;;;;;;;;;;;5056847;28;20300;-88
2021/12/02 09:50:52;;;;;;;;;;;;;;;;;;5057306;28;20058;-88
2021/12/02 09:53:22;;;;;;;;;;;;;;;;;;5056836;28;20052;-89
2021/12/02 09:55:53;;;;;;;;;;;;;;;;;;5056325;28;19967;-88
2021/12/02 09:58:23;;;;;;;;;;;;;;;;;;5056490;28;19960;-89
2021/12/02 10:00:54;;;;;;;;;;;;;;;;;;5056271;28;19957;-88
2021/12/02 10:03:28;;;;;;;;;;;;;;;;;;5057602;28;19998;-88
2021/12/02 10:05:56;;;;;;;;;;;;;;;;;;5065514;28;19995;-88
2021/12/02 10:08:24;;;;;;;;;;;;;;;;;;5066588;28;20562;-87
2021/12/02 10:10:56;;;;;;;;;;;;;;;;;;5064506;28;19974;-87
2021/12/02 10:13:34;;;;;;;;;;;;;;;;;;5056080;28;19956;-88
2021/12/02 10:16:01;;;;;;;;;;;;;;;;;;5055380;28;19962;-88
2021/12/02 10:18:28;;;;;;;;;;;;;;;;;;5055738;28;19952;-88
2021/12/02 10:20:55;;;;;;;;;;;;;;;;;;5055619;28;20448;-88
2021/12/02 10:23:29;;;;;;;;;;;;;;;;;;5055727;28;20053;-88
2021/12/02 10:25:58;;;;;;;;;;;;;;;;;;5055202;28;19994;-87
2021/12/02 10:28:25;;;;;;;;;;;;;;;;;;5054649;28;20405;-87
2021/12/02 10:30:52;;;;;;;;;;;;;;;;;;5055163;28;20076;-88
2021/12/02 10:33:19;;;;;;;;;;;;;;;;;;5055332;28;20003;-87
2021/12/02 10:35:46;;;;;;;;;;;;;;;;;;5054896;28;20369;-88
2021/12/02 10:38:13;;;;;;;;;;;;;;;;;;5055151;28;20314;-87
2021/12/02 10:40:40;;;;;;;;;;;;;;;;;;5054983;28;20050;-89
2021/12/02 10:43:07;;;;;;;;;;;;;;;;;;5055222;28;20057;-87
2021/12/02 10:45:34;;;;;;;;;;;;;;;;;;5055238;28;20418;-88
2021/12/02 10:48:01;;;;;;;;;;;;;;;;;;5054798;28;20011;-88
2021/12/02 10:50:28;;;;;;;;;;;;;;;;;;5054929;28;19982;-88
2021/12/02 10:52:56;;;;;;;;;;;;;;;;;;5054630;28;20060;-88
2021/12/02 10:55:22;;;;;;;;;;;;;;;;;;5054950;28;20394;-87
2021/12/02 10:57:49;;;;;;;;;;;;;;;;;;5054584;28;20039;-87
2021/12/02 11:00:16;;;;;;;;;;;;;;;;;;5054782;28;20050;-87
2021/12/02 11:02:48;;;;;;;;;;;;;;;;;;5055003;28;19963;-88
2021/12/02 11:05:19;;;;;;;;;;;;;;;;;;5054207;28;19956;-88
2021/12/02 11:07:46;;;;;;;;;;;;;;;;;;5054102;28;20077;-87
2021/12/02 11:10:13;;;;;;;;;;;;;;;;;;5054316;28;20482;-88
2021/12/02 11:12:40;;;;;;;;;;;;;;;;;;5054575;28;19996;-88
2021/12/02 11:15:08;;;;;;;;;;;;;;;;;;5054081;28;19955;-88
2021/12/02 11:17:35;;;;;;;;;;;;;;;;;;5054282;28;19961;-87
2021/12/02 11:20:02;;;;;;;;;;;;;;;;;;5054168;28;20414;-87
2021/12/02 11:22:29;;;;;;;;;;;;;;;;;;5053953;28;19928;-88
2021/12/02 11:24:56;;;;;;;;;;;;;;;;;;5054893;28;19963;-87
2021/12/02 11:27:23;;;;;;;;;;;;;;;;;;5054022;28;19996;-88
2021/12/02 11:29:50;;;;;;;;;;;;;;;;;;5053887;28;20030;-86
2021/12/02 11:32:17;;;;;;;;;;;;;;;;;;5054211;28;19993;-87
2021/12/02 11:34:44;;;;;;;;;;;;;;;;;;5054203;28;20036;-86
2021/12/02 11:37:11;;;;;;;;;;;;;;;;;;5054726;28;20000;-88
2021/12/02 11:39:40;;;;;;;;;;;;;;;;;;5052856;28;20021;-87
2021/12/02 11:42:07;;;;;;;;;;;;;;;;;;5053749;28;20327;-87
2021/12/02 11:44:34;;;;;;;;;;;;;;;;;;5053934;28;19999;-86
2021/12/02 11:47:01;;;;;;;;;;;;;;;;;;5053795;28;20043;-87
2021/12/02 11:49:28;;;;;;;;;;;;;;;;;;5057389;28;20047;-86
2021/12/02 11:51:55;;;;;;;;;;;;;;;;;;5061977;28;19981;-87
2021/12/02 11:54:22;;;;;;;;;;;;;;;;;;5058701;28;20469;-87
2021/12/02 11:56:49;;;;;;;;;;;;;;;;;;5054644;28;20013;-87
2021/12/02 11:59:16;;;;;;;;;;;;;;;;;;5053955;28;20014;-87
2021/12/02 12:01:43;;;;;;;;;;;;;;;;;;5053316;28;20388;-88
2021/12/02 12:04:10;;;;;;;;;;;;;;;;;;5053666;28;20041;-87
2021/12/02 12:06:38;;;;;;;;;;;;;;;;;;5053524;28;20027;-87
2021/12/02 12:09:05;;;;;;;;;;;;;;;;;;5053255;28;20016;-87
2021/12/02 12:11:32;;;;;;;;;;;;;;;;;;5052999;28;20497;-87
2021/12/02 12:13:59;;;;;;;;;;;;;;;;;;5053349;28;20002;-87
2021/12/02 12:16:26;;;;;;;;;;;;;;;;;;5053453;28;20055;-87
2021/12/02 12:18:53;;;;;;;;;;;;;;;;;;5053264;28;20005;-88
2021/12/02 12:21:20;;;;;;;;;;;;;;;;;;5053343;28;20362;-87
2021/12/02 12:23:47;;;;;;;;;;;;;;;;;;5053531;28;20044;-87
2021/12/02 12:26:14;;;;;;;;;;;;;;;;;;5053485;28;19995;-87
2021/12/02 12:28:41;;;;;;;;;;;;;;;;;;5055158;28;20410;-86
2021/12/02 12:31:08;;;;;;;;;;;;;;;;;;5053125;28;20070;-87
2021/12/02 12:33:38;;;;;;;;;;;;;;;;;;5053154;28;20414;-87
2021/12/02 12:36:13;;;;;;;;;;;;;;;;;;5053506;28;19955;-87
2021/12/02 12:38:42;;;;;;;;;;;;;;;;;;5053599;28;19956;-87
2021/12/02 12:41:09;;;;;;;;;;;;;;;;;;5053159;28;19959;-87
2021/12/02 12:43:37;;;;;;;;;;;;;;;;;;5053461;28;20047;-87
2021/12/02 12:46:04;;;;;;;;;;;;;;;;;;5053421;28;20008;-88
2021/12/02 12:48:31;;;;;;;;;;;;;;;;;;5053169;28;20001;-88
2021/12/02 12:50:58;;;;;;;;;;;;;;;;;;5055120;28;20443;-88
2021/12/02 12:53:25;;;;;;;;;;;;;;;;;;5056922;28;20006;-88
2021/12/02 12:55:52;;;;;;;;;;;;;;;;;;5057048;28;19999;-88
2021/12/02 12:58:19;;;;;;;;;;;;;;;;;;5057154;28;20012;-88
2021/12/02 13:00:46;;;;;;;;;;;;;;;;;;5056866;28;20000;-89
2021/12/02 13:03:15;;;;;;;;;;;;;;;;;;5056664;28;20036;-87
2021/12/02 13:05:43;;;;;;;;;;;;;;;;;;5057190;28;19969;-88
2021/12/02 13:08:10;;;;;;;;;;;;;;;;;;5056850;28;20329;-88
2021/12/02 13:10:37;;;;;;;;;;;;;;;;;;5056707;28;20008;-88
2021/12/02 13:13:04;;;;;;;;;;;;;;;;;;5056501;28;20399;-87
2021/12/02 13:15:32;;;;;;;;;;;;;;;;;;5056558;28;20061;-89
2021/12/02 13:18:00;;;;;;;;;;;;;;;;;;5056625;28;19996;-89
2021/12/02 13:20:27;;;;;;;;;;;;;;;;;;5056427;28;20027;-87
2021/12/02 13:22:54;;;;;;;;;;;;;;;;;;5056434;28;19989;-87
2021/12/02 13:25:21;;;;;;;;;;;;;;;;;;5056321;28;20041;-88
2021/12/02 13:27:49;;;;;;;;;;;;;;;;;;5056617;28;20043;-88
2021/12/02 13:30:16;;;;;;;;;;;;;;;;;;5056795;28;20019;-91
2021/12/02 13:32:44;;;;;;;;;;;;;;;;;;5061770;28;19954;-88
2021/12/02 13:35:10;;;;;;;;;;;;;;;;;;5063003;28;20464;-89
2021/12/02 13:37:37;;;;;;;;;;;;;;;;;;5070746;28;19953;-88
2021/12/02 13:40:04;;;;;;;;;;;;;;;;;;5060561;28;20001;-89
2021/12/02 13:42:31;;;;;;;;;;;;;;;;;;5056885;28;20048;-89
2021/12/02 13:45:01;;;;;;;;;;;;;;;;;;5056430;28;19998;-89
2021/12/02 13:47:29;;;;;;;;;;;;;;;;;;5056416;28;19958;-87
2021/12/02 13:49:56;;;;;;;;;;;;;;;;;;5056562;28;20401;-90
2021/12/02 13:52:23;;;;;;;;;;;;;;;;;;5056668;28;19960;-90
2021/12/02 13:54:53;;;;;;;;;;;;;;;;;;5057336;28;19958;-92
2021/12/02 13:57:20;;;;;;;;;;;;;;;;;;5057190;28;19995;-90
2021/12/02 13:59:47;;;;;;;;;;;;;;;;;;5058317;28;20429;-91
2021/12/02 14:02:14;;;;;;;;;;;;;;;;;;5056926;28;20024;-90
2021/12/02 14:04:41;;;;;;;;;;;;;;;;;;5056229;28;19960;-89
2021/12/02 14:07:08;;;;;;;;;;;;;;;;;;5057154;28;20085;-94
2021/12/02 14:09:35;;;;;;;;;;;;;;;;;;5056423;28;20052;-92
2021/12/02 14:12:02;;;;;;;;;;;;;;;;;;5056331;28;20055;-85
2021/12/02 14:14:29;;;;;;;;;;;;;;;;;;5056351;28;20020;-91
2021/12/02 14:16:56;;;;;;;;;;;;;;;;;;5056508;28;20049;-90
2021/12/02 14:19:23;;;;;;;;;;;;;;;;;;5058546;28;20028;-93
2021/12/02 14:21:50;;;;;;;;;;;;;;;;;;5057848;28;20467;-91
2021/12/02 14:24:17;;;;;;;;;;;;;;;;;;5056397;28;20293;-94
2021/12/02 14:26:44;;;;;;;;;;;;;;;;;;5057194;28;20013;-91
2021/12/02 14:29:10;;;;;;;;;;;;;;;;;;5054694;28;20002;-91
2021/12/02 14:31:38;;;;;;;;;;;;;;;;;;5054181;28;20063;-88
2021/12/02 14:34:05;;;;;;;;;;;;;;;;;;5055352;28;19955;-89
2021/12/02 14:36:32;;;;;;;;;;;;;;;;;;5055493;28;19967;-89
2021/12/02 14:38:59;;;;;;;;;;;;;;;;;;5055578;28;20023;-88
2021/12/02 14:41:26;;;;;;;;;;;;;;;;;;5061772;28;20407;-89
2021/12/02 14:43:53;;;;;;;;;;;;;;;;;;5068235;28;19960;-89
2021/12/02 14:46:20;;;;;;;;;;;;;;;;;;5058778;28;20417;-89
2021/12/02 14:48:47;;;;;;;;;;;;;;;;;;5055473;28;19953;-89
2021/12/02 14:51:14;;;;;;;;;;;;;;;;;;5055351;28;20058;-89
2021/12/02 14:53:41;;;;;;;;;;;;;;;;;;5055326;28;20487;-88
2021/12/02 14:56:08;;;;;;;;;;;;;;;;;;5054509;28;19957;-88
2021/12/02 14:58:35;;;;;;;;;;;;;;;;;;5055078;28;20413;-89
2021/12/02 15:01:02;;;;;;;;;;;;;;;;;;5055246;28;20044;-89
2021/12/02 15:03:29;;;;;;;;;;;;;;;;;;5055061;28;19958;-90
2021/12/02 15:05:56;;;;;;;;;;;;;;;;;;5055111;28;20358;-89
2021/12/02 15:08:23;;;;;;;;;;;;;;;;;;5054957;28;20074;-90
2021/12/02 15:10:52;;;;;;;;;;;;;;;;;;5055318;28;20029;-89
2021/12/02 15:13:20;;;;;;;;;;;;;;;;;;5056234;28;20017;-87
2021/12/02 15:15:47;;;;;;;;;;;;;;;;;;5066545;28;19994;-88
2021/12/02 15:18:14;;;;;;;;;;;;;;;;;;5062939;28;19952;-88
2021/12/02 15:20:41;;;;;;;;;;;;;;;;;;5067222;28;19955;-88
2021/12/02 15:23:10;;;;;;;;;;;;;;;;;;5061355;28;19997;-89
2021/12/02 15:25:37;;;;;;;;;;;;;;;;;;5056653;28;19964;-88
2021/12/02 15:28:04;;;;;;;;;;;;;;;;;;5054603;28;19961;-88
2021/12/02 15:30:31;;;;;;;;;;;;;;;;;;5054532;28;20052;-89
2021/12/02 15:32:58;;;;;;;;;;;;;;;;;;5055513;28;20052;-89
2021/12/02 15:35:25;;;;;;;;;;;;;;;;;;5054553;28;20429;-89
2021/12/02 15:37:52;;;;;;;;;;;;;;;;;;5054425;28;20000;-88
2021/12/02 15:40:19;;;;;;;;;;;;;;;;;;5055633;28;20311;-89
2021/12/02 15:42:46;;;;;;;;;;;;;;;;;;5054927;28;19958;-89
2021/12/02 15:45:14;;;;;;;;;;;;;;;;;;5054698;28;19996;-88
2021/12/02 15:47:42;;;;;;;;;;;;;;;;;;5055080;28;20362;-90
2021/12/02 15:50:13;;;;;;;;;;;;;;;;;;5055473;28;19991;-90
2021/12/02 15:52:41;;;;;;;;;;;;;;;;;;5054149;28;19971;-90
2021/12/02 15:55:08;;;;;;;;;;;;;;;;;;5055169;28;20292;-88
2021/12/02 15:57:35;;;;;;;;;;;;;;;;;;5053830;28;19993;-87
2021/12/02 16:00:04;;;;;;;;;;;;;;;;;;5053575;28;20039;-85
2021/12/02 16:02:34;;;;;;;;;;;;;;;;;;5053487;28;20047;-86
2021/12/02 16:05:05;;;;;;;;;;;;;;;;;;5053554;28;20023;-87
2021/12/02 16:07:35;;;;;;;;;;;;;;;;;;5053346;28;19976;-86
2021/12/02 16:10:17;;;;;;;;;;;;;;;;;;5053341;28;20364;-87
2021/12/02 16:12:44;;;;;;;;;;;;;;;;;;5053664;28;20465;-86
2021/12/02 16:15:11;;;;;;;;;;;;;;;;;;5053414;28;19993;-86
2021/12/02 16:17:38;;;;;;;;;;;;;;;;;;5053493;28;20052;-86
2021/12/02 16:20:06;;;;;;;;;;;;;;;;;;5053585;28;19952;-86
2021/12/02 16:22:33;;;;;;;;;;;;;;;;;;5053203;28;19956;-86
2021/12/02 16:25:00;;;;;;;;;;;;;;;;;;5052302;28;19957;-87
2021/12/02 16:27:27;;;;;;;;;;;;;;;;;;5057215;28;19962;-87
2021/12/02 16:29:54;;;;;;;;;;;;;;;;;;5057198;28;20429;-87
2021/12/02 16:32:21;;;;;;;;;;;;;;;;;;5057765;28;20070;-86
2021/12/02 16:34:48;;;;;;;;;;;;;;;;;;5057149;28;19997;-86
2021/12/02 16:37:15;;;;;;;;;;;;;;;;;;5057238;28;20048;-87
2021/12/02 16:39:42;;;;;;;;;;;;;;;;;;5057013;28;20013;-87
2021/12/02 16:42:09;;;;;;;;;;;;;;;;;;5056920;28;20052;-86
2021/12/02 16:44:36;;;;;;;;;;;;;;;;;;5057156;28;19956;-87
2021/12/02 16:47:03;;;;;;;;;;;;;;;;;;5057001;28;20051;-88
2021/12/02 16:49:30;;;;;;;;;;;;;;;;;;5056856;28;20060;-87
2021/12/02 16:51:58;;;;;;;;;;;;;;;;;;5056868;28;20023;-87
2021/12/02 16:54:25;;;;;;;;;;;;;;;;;;5056948;28;20396;-87